createdAt,value
2022-08-11T00:00:05.469Z,1022.39
2022-08-11T00:02:02.485Z,1022.37
2022-08-11T00:04:01.855Z,1022.37
2022-08-11T00:06:02.843Z,1022.4
2022-08-11T00:08:02.120Z,1022.4
2022-08-11T00:10:01.874Z,1022.4
2022-08-11T00:12:02.130Z,1022.4
2022-08-11T00:14:01.588Z,1022.44
2022-08-11T00:16:01.864Z,1022.44
2022-08-11T00:18:02.423Z,1022.46
2022-08-11T00:20:16.899Z,1022.46
2022-08-11T00:22:06.598Z,1022.37
2022-08-11T00:24:01.756Z,1022.37
2022-08-11T00:26:01.862Z,1022.44
2022-08-11T00:28:02.424Z,1022.44
2022-08-11T00:30:01.898Z,1022.42
2022-08-11T00:32:02.203Z,1022.42
2022-08-11T00:34:02.376Z,1022.39
2022-08-11T00:36:02.471Z,1022.39
2022-08-11T00:38:01.717Z,1022.33
2022-08-11T00:40:02.060Z,1022.33
2022-08-11T00:42:01.712Z,1022.45
2022-08-11T00:44:01.759Z,1022.45
2022-08-11T00:46:02.362Z,1022.43
2022-08-11T00:48:01.838Z,1022.43
2022-08-11T00:50:01.735Z,1022.38
2022-08-11T00:52:06.543Z,1022.38
2022-08-11T00:54:01.813Z,1022.45
2022-08-11T00:56:02.307Z,1022.45
2022-08-11T00:58:01.788Z,1022.43
2022-08-11T01:00:05.514Z,1022.43
2022-08-11T01:02:02.565Z,1022.42
2022-08-11T01:04:01.972Z,1022.42
2022-08-11T01:06:05.382Z,1022.37
2022-08-11T01:08:03.936Z,1022.37
2022-08-11T01:10:07.601Z,1022.37
2022-08-11T01:12:02.394Z,1022.37
2022-08-11T01:14:02.320Z,1022.34
2022-08-11T01:16:01.924Z,1022.34
2022-08-11T01:18:01.950Z,1022.41
2022-08-11T01:20:49.434Z,1022.41
2022-08-11T01:22:01.889Z,1022.3
2022-08-11T01:24:01.555Z,1022.3
2022-08-11T01:26:01.758Z,1022.36
2022-08-11T01:28:02.074Z,1022.36
2022-08-11T01:30:02.400Z,1022.3
2022-08-11T01:32:01.668Z,1022.3
2022-08-11T01:34:01.618Z,1022.35
2022-08-11T01:36:02.099Z,1022.35
2022-08-11T01:38:02.140Z,1022.29
2022-08-11T01:40:02.264Z,1022.29
2022-08-11T01:42:02.201Z,1022.29
2022-08-11T01:44:01.739Z,1022.29
2022-08-11T01:46:01.824Z,1022.21
2022-08-11T01:48:01.785Z,1022.21
2022-08-11T01:50:10.849Z,1022.24
2022-08-11T01:52:02.027Z,1022.24
2022-08-11T01:54:01.897Z,1022.26
2022-08-11T01:56:02.074Z,1022.26
2022-08-11T01:58:02.214Z,1022.19
2022-08-11T02:00:05.110Z,1022.19
2022-08-11T02:02:02.116Z,1022.29
2022-08-11T02:04:01.679Z,1022.29
2022-08-11T02:06:02.108Z,1022.24
2022-08-11T02:08:02.649Z,1022.24
2022-08-11T02:10:02.101Z,1022.22
2022-08-11T02:12:02.858Z,1022.22
2022-08-11T02:14:02.283Z,1022.25
2022-08-11T02:16:01.652Z,1022.25
2022-08-11T02:18:02.446Z,1022.27
2022-08-11T02:20:02.145Z,1022.27
2022-08-11T02:22:05.208Z,1022.19
2022-08-11T02:24:08.258Z,1022.19
2022-08-11T02:26:01.939Z,1022.23
2022-08-11T02:28:01.666Z,1022.23
2022-08-11T02:30:02.158Z,1022.08
2022-08-11T02:32:30.829Z,1022.08
2022-08-11T02:34:02.308Z,1022.16
2022-08-11T02:36:01.598Z,1022.16
2022-08-11T02:38:02.182Z,1022.07
2022-08-11T02:40:02.043Z,1022.07
2022-08-11T02:42:02.373Z,1022.15
2022-08-11T02:44:01.605Z,1022.15
2022-08-11T02:46:01.984Z,1022.06
2022-08-11T02:48:02.178Z,1022.06
2022-08-11T02:50:08.120Z,1021.98
2022-08-11T02:52:02.120Z,1021.98
2022-08-11T02:54:02.483Z,1021.98
2022-08-11T02:56:01.588Z,1021.98
2022-08-11T02:58:01.781Z,1022.09
2022-08-11T03:00:06.764Z,1021.95
2022-08-11T03:02:05.905Z,1021.95
2022-08-11T03:04:02.437Z,1021.95
2022-08-11T03:06:01.637Z,1021.91
2022-08-11T03:08:02.040Z,1021.84
2022-08-11T03:10:01.658Z,1021.84
2022-08-11T03:12:03.374Z,1022
2022-08-11T03:14:01.851Z,1022
2022-08-11T03:16:01.986Z,1021.9
2022-08-11T03:18:01.740Z,1021.9
2022-08-11T03:20:02.544Z,1021.94
2022-08-11T03:22:06.744Z,1021.94
2022-08-11T03:24:01.813Z,1021.91
2022-08-11T03:26:02.318Z,1021.91
2022-08-11T03:28:03.038Z,1021.94
2022-08-11T03:30:02.190Z,1021.94
2022-08-11T03:32:01.705Z,1021.89
2022-08-11T03:34:08.069Z,1021.89
2022-08-11T03:36:02.170Z,1022.06
2022-08-11T03:38:01.762Z,1022.06
2022-08-11T03:40:02.928Z,1021.82
2022-08-11T03:42:10.283Z,1021.82
2022-08-11T03:44:01.781Z,1021.96
2022-08-11T03:46:02.306Z,1021.96
2022-08-11T03:48:01.632Z,1021.9
2022-08-11T03:50:02.497Z,1021.9
2022-08-11T03:52:02.464Z,1021.97
2022-08-11T03:54:01.700Z,1021.97
2022-08-11T03:56:02.364Z,1022.02
2022-08-11T03:58:01.541Z,1022.02
2022-08-11T04:00:05.174Z,1022
2022-08-11T04:02:02.391Z,1022
2022-08-11T04:04:01.972Z,1021.85
2022-08-11T04:06:02.187Z,1021.85
2022-08-11T04:08:02.390Z,1021.87
2022-08-11T04:10:01.649Z,1021.87
2022-08-11T04:12:01.587Z,1021.89
2022-08-11T04:14:02.534Z,1021.89
2022-08-11T04:16:13.015Z,1021.85
2022-08-11T04:18:02.509Z,1021.85
2022-08-11T04:20:02.168Z,1021.93
2022-08-11T04:22:01.932Z,1021.93
2022-08-11T04:24:39.952Z,1021.84
2022-08-11T04:26:19.131Z,1021.84
2022-08-11T04:28:01.640Z,1021.91
2022-08-11T04:30:05.898Z,1021.91
2022-08-11T04:32:02.314Z,1021.95
2022-08-11T04:34:02.474Z,1021.95
2022-08-11T04:36:02.001Z,1021.9
2022-08-11T04:38:02.331Z,1021.9
2022-08-11T04:40:01.758Z,1021.88
2022-08-11T04:42:02.335Z,1021.88
2022-08-11T04:44:06.909Z,1021.86
2022-08-11T04:46:01.683Z,1021.86
2022-08-11T04:48:05.059Z,1021.83
2022-08-11T04:50:01.905Z,1021.83
2022-08-11T04:52:02.442Z,1021.92
2022-08-11T04:54:02.002Z,1021.92
2022-08-11T04:56:01.912Z,1021.84
2022-08-11T04:58:02.647Z,1021.84
2022-08-11T05:00:05.124Z,1021.94
2022-08-11T05:02:02.428Z,1021.94
2022-08-11T05:04:02.094Z,1021.97
2022-08-11T05:06:02.653Z,1021.97
2022-08-11T05:08:02.189Z,1021.99
2022-08-11T05:10:02.132Z,1021.99
2022-08-11T05:12:02.521Z,1021.82
2022-08-11T05:14:01.821Z,1021.82
2022-08-11T05:16:02.563Z,1021.86
2022-08-11T05:18:03.723Z,1021.86
2022-08-11T05:20:02.217Z,1021.95
2022-08-11T05:22:01.712Z,1021.95
2022-08-11T05:24:02.095Z,1021.87
2022-08-11T05:26:49.649Z,1021.87
2022-08-11T05:28:02.330Z,1022.05
2022-08-11T05:30:01.665Z,1022.05
2022-08-11T05:32:01.741Z,1021.97
2022-08-11T05:34:02.414Z,1021.97
2022-08-11T05:36:03.704Z,1021.93
2022-08-11T05:38:02.080Z,1021.93
2022-08-11T05:40:02.365Z,1021.98
2022-08-11T05:42:02.062Z,1021.98
2022-08-11T05:44:22.652Z,1021.98
2022-08-11T05:46:09.055Z,1021.98
2022-08-11T05:48:02.275Z,1021.97
2022-08-11T05:50:02.234Z,1021.97
2022-08-11T05:52:16.628Z,1022
2022-08-11T05:54:02.014Z,1022
2022-08-11T05:56:04.057Z,1021.9
2022-08-11T05:58:01.962Z,1021.9
2022-08-11T06:00:06.636Z,1022.01
2022-08-11T06:02:01.933Z,1022.01
2022-08-11T06:04:01.792Z,1022.1
2022-08-11T06:06:02.480Z,1022.1
2022-08-11T06:08:02.022Z,1022.04
2022-08-11T06:10:02.126Z,1022.04
2022-08-11T06:12:02.219Z,1021.94
2022-08-11T06:14:02.198Z,1021.94
2022-08-11T06:16:07.382Z,1021.98
2022-08-11T06:18:01.762Z,1021.98
2022-08-11T06:20:07.895Z,1022.04
2022-08-11T06:22:01.725Z,1022.04
2022-08-11T06:24:01.980Z,1021.96
2022-08-11T06:26:02.182Z,1021.96
2022-08-11T06:28:01.650Z,1022.04
2022-08-11T06:30:01.890Z,1022.04
2022-08-11T06:32:02.486Z,1022.07
2022-08-11T06:34:02.294Z,1022.07
2022-08-11T06:36:01.802Z,1022.07
2022-08-11T06:38:01.635Z,1021.97
2022-08-11T06:40:01.799Z,1021.97
2022-08-11T06:42:02.279Z,1021.98
2022-08-11T06:44:05.705Z,1021.98
2022-08-11T06:46:02.515Z,1021.96
2022-08-11T06:48:01.989Z,1021.96
2022-08-11T06:50:02.673Z,1021.97
2022-08-11T06:52:04.785Z,1021.97
2022-08-11T06:54:05.960Z,1022.05
2022-08-11T06:56:01.858Z,1022.05
2022-08-11T06:58:02.005Z,1022
2022-08-11T07:00:05.041Z,1022
2022-08-11T07:02:02.342Z,1021.95
2022-08-11T07:04:01.873Z,1021.95
2022-08-11T07:06:02.142Z,1022
2022-08-11T07:08:35.958Z,1022
2022-08-11T07:10:01.995Z,1022.06
2022-08-11T07:12:01.639Z,1022.06
2022-08-11T07:14:02.037Z,1021.96
2022-08-11T07:16:14.199Z,1021.96
2022-08-11T07:18:01.802Z,1021.95
2022-08-11T07:20:01.796Z,1021.95
2022-08-11T07:22:04.408Z,1021.99
2022-08-11T07:24:02.045Z,1021.99
2022-08-11T07:26:01.599Z,1021.97
2022-08-11T07:28:01.678Z,1021.97
2022-08-11T07:30:02.077Z,1021.84
2022-08-11T07:32:01.626Z,1021.84
2022-08-11T07:34:15.910Z,1021.96
2022-08-11T07:36:02.096Z,1021.96
2022-08-11T07:38:05.780Z,1022
2022-08-11T07:40:02.483Z,1022
2022-08-11T07:42:02.109Z,1022.05
2022-08-11T07:44:01.984Z,1022.05
2022-08-11T07:46:02.200Z,1022.01
2022-08-11T07:48:01.619Z,1022.01
2022-08-11T07:50:02.473Z,1021.99
2022-08-11T07:52:01.967Z,1021.99
2022-08-11T07:54:17.575Z,1022.17
2022-08-11T07:56:03.300Z,1022.17
2022-08-11T07:58:20.386Z,1022.13
2022-08-11T08:00:05.464Z,1022.13
2022-08-11T08:02:02.740Z,1022.01
2022-08-11T08:04:01.974Z,1022.01
2022-08-11T08:06:02.204Z,1021.99
2022-08-11T08:08:02.464Z,1021.99
2022-08-11T08:10:01.946Z,1021.99
2022-08-11T08:12:02.303Z,1021.99
2022-08-11T08:14:01.879Z,1022.02
2022-08-11T08:16:02.293Z,1022.02
2022-08-11T08:18:27.748Z,1022.04
2022-08-11T08:20:02.382Z,1022.04
2022-08-11T08:22:41.193Z,1022.14
2022-08-11T08:24:02.391Z,1022.14
2022-08-11T08:26:01.793Z,1022.01
2022-08-11T08:28:01.802Z,1022.01
2022-08-11T08:30:01.732Z,1022.05
2022-08-11T08:32:01.883Z,1022.05
2022-08-11T08:34:02.012Z,1022.07
2022-08-11T08:36:02.482Z,1022.07
2022-08-11T08:38:02.074Z,1022.09
2022-08-11T08:40:02.374Z,1022.09
2022-08-11T08:42:02.479Z,1021.99
2022-08-11T08:44:40.614Z,1021.99
2022-08-11T08:46:02.626Z,1021.95
2022-08-11T08:48:01.835Z,1021.95
2022-08-11T08:50:02.329Z,1022.03
2022-08-11T08:52:38.692Z,1022.03
2022-08-11T08:54:01.845Z,1022.06
2022-08-11T08:56:02.062Z,1022.06
2022-08-11T08:58:02.070Z,1021.93
2022-08-11T09:00:12.576Z,1021.93
2022-08-11T09:02:02.555Z,1022.08
2022-08-11T09:04:14.270Z,1022.08
2022-08-11T09:06:01.802Z,1021.9
2022-08-11T09:08:01.706Z,1021.9
2022-08-11T09:10:01.852Z,1022.04
2022-08-11T09:12:02.327Z,1022.04
2022-08-11T09:14:11.507Z,1021.94
2022-08-11T09:16:02.604Z,1021.94
2022-08-11T09:18:02.029Z,1022.05
2022-08-11T09:20:03.805Z,1022.05
2022-08-11T09:22:02.022Z,1022
2022-08-11T09:24:16.863Z,1022
2022-08-11T09:26:02.159Z,1021.93
2022-08-11T09:28:02.297Z,1021.93
2022-08-11T09:30:02.569Z,1021.94
2022-08-11T09:32:01.955Z,1021.94
2022-08-11T09:34:02.386Z,1021.77
2022-08-11T09:36:01.789Z,1021.77
2022-08-11T09:38:03.709Z,1021.88
2022-08-11T09:40:02.078Z,1021.88
2022-08-11T09:42:04.608Z,1021.77
2022-08-11T09:44:04.761Z,1021.77
2022-08-11T09:46:02.046Z,1021.8
2022-08-11T09:48:01.611Z,1021.8
2022-08-11T09:50:02.936Z,1021.77
2022-08-11T09:52:05.849Z,1021.63
2022-08-11T09:54:04.222Z,1021.63
2022-08-11T09:56:01.797Z,1021.63
2022-08-11T09:58:02.242Z,1021.63
2022-08-11T10:00:14.447Z,1021.66
2022-08-11T10:02:03.912Z,1021.66
2022-08-11T10:04:01.903Z,1021.53
2022-08-11T10:06:08.385Z,1021.53
2022-08-11T10:08:01.926Z,1021.49
2022-08-11T10:10:02.572Z,1021.49
2022-08-11T10:12:02.228Z,1021.53
2022-08-11T10:14:35.277Z,1021.53
2022-08-11T10:16:17.035Z,1021.54
2022-08-11T10:18:01.682Z,1021.54
2022-08-11T10:20:06.270Z,1021.48
2022-08-11T10:22:02.218Z,1021.48
2022-08-11T10:24:06.347Z,1021.47
2022-08-11T10:26:02.312Z,1021.47
2022-08-11T10:29:09.642Z,1021.34
2022-08-11T10:30:02.331Z,1021.34
2022-08-11T10:32:04.766Z,1021.27
2022-08-11T10:34:02.263Z,1021.27
2022-08-11T10:36:01.760Z,1021.3
2022-08-11T10:38:16.195Z,1021.3
2022-08-11T10:40:02.270Z,1021.45
2022-08-11T10:42:15.400Z,1021.45
2022-08-11T10:44:04.457Z,1021.33
2022-08-11T10:46:01.870Z,1021.33
2022-08-11T10:48:02.021Z,1021.32
2022-08-11T10:50:05.586Z,1021.32
2022-08-11T10:52:02.538Z,1021.27
2022-08-11T10:54:01.725Z,1021.27
2022-08-11T10:56:02.149Z,1021.31
2022-08-11T10:58:05.793Z,1021.31
2022-08-11T11:00:05.092Z,1021.31
2022-08-11T11:02:02.390Z,1021.31
2022-08-11T11:04:02.535Z,1021.34
2022-08-11T11:06:29.989Z,1021.34
2022-08-11T11:08:02.249Z,1021.25
2022-08-11T11:10:02.486Z,1021.25
2022-08-11T11:12:02.380Z,1021.09
2022-08-11T11:14:03.931Z,1021.09
2022-08-11T11:16:02.578Z,1021.21
2022-08-11T11:18:02.226Z,1021.21
2022-08-11T11:20:02.514Z,1021.24
2022-08-11T11:22:01.551Z,1021.24
2022-08-11T11:24:01.931Z,1021.17
2022-08-11T11:26:01.595Z,1021.17
2022-08-11T11:28:01.735Z,1021.23
2022-08-11T11:30:02.369Z,1021.23
2022-08-11T11:32:01.827Z,1021.11
2022-08-11T11:34:13.196Z,1021.11
2022-08-11T11:36:02.160Z,1021.21
2022-08-11T11:38:07.522Z,1021.21
2022-08-11T11:40:02.197Z,1021.11
2022-08-11T11:42:01.861Z,1021.11
2022-08-11T11:44:02.466Z,1021.09
2022-08-11T11:46:01.734Z,1021.09
2022-08-11T11:48:01.771Z,1021.1
2022-08-11T11:50:01.854Z,1021.1
2022-08-11T11:52:01.603Z,1021.13
2022-08-11T11:54:01.755Z,1021.13
2022-08-11T11:56:01.977Z,1021.01
2022-08-11T11:58:03.150Z,1021.01
2022-08-11T12:00:05.082Z,1021.03
2022-08-11T12:02:12.680Z,1021.03
2022-08-11T12:04:02.448Z,1021.01
2022-08-11T12:06:02.209Z,1021.01
2022-08-11T12:08:13.544Z,1021
2022-08-11T12:10:02.430Z,1021
2022-08-11T12:12:02.420Z,1020.98
2022-08-11T12:14:01.791Z,1020.98
2022-08-11T12:16:36.688Z,1020.93
2022-08-11T12:18:02.153Z,1020.93
2022-08-11T12:20:02.960Z,1020.86
2022-08-11T12:22:02.203Z,1020.86
2022-08-11T12:24:04.896Z,1020.84
2022-08-11T12:26:27.500Z,1020.84
2022-08-11T12:28:02.189Z,1020.8
2022-08-11T12:30:02.396Z,1020.8
2022-08-11T12:32:04.746Z,1020.7
2022-08-11T12:34:02.535Z,1020.7
2022-08-11T12:36:01.785Z,1020.7
2022-08-11T12:38:10.862Z,1020.7
2022-08-11T12:41:11.885Z,1020.7
2022-08-11T12:42:02.321Z,1020.7
2022-08-11T12:44:02.497Z,1020.66
2022-08-11T12:46:02.238Z,1020.66
2022-08-11T12:49:02.798Z,1020.57
2022-08-11T12:50:02.000Z,1020.57
2022-08-11T12:52:15.798Z,1020.57
2022-08-11T12:54:02.323Z,1020.57
2022-08-11T12:56:08.043Z,1020.66
2022-08-11T12:58:01.668Z,1020.66
2022-08-11T13:00:04.778Z,1020.51
2022-08-11T13:02:01.718Z,1020.51
2022-08-11T13:04:01.768Z,1020.32
2022-08-11T13:06:01.859Z,1020.32
2022-08-11T13:08:02.127Z,1020.38
2022-08-11T13:10:02.798Z,1020.38
2022-08-11T13:12:02.149Z,1020.28
2022-08-11T13:14:01.708Z,1020.28
2022-08-11T13:16:02.267Z,1020.35
2022-08-11T13:18:02.238Z,1020.27
2022-08-11T13:20:04.446Z,1020.27
2022-08-11T13:22:02.322Z,1020.27
2022-08-11T13:24:03.863Z,1020.27
2022-08-11T13:26:02.346Z,1020.32
2022-08-11T13:28:01.882Z,1020.32
2022-08-11T13:30:02.290Z,1020.27
2022-08-11T13:32:01.795Z,1020.27
2022-08-11T13:34:01.867Z,1020.35
2022-08-11T13:36:02.076Z,1020.35
2022-08-11T13:38:20.626Z,1020.28
2022-08-11T13:40:01.876Z,1020.28
2022-08-11T13:42:01.879Z,1020.28
2022-08-11T13:44:02.947Z,1020.28
2022-08-11T13:46:02.183Z,1020.16
2022-08-11T13:48:01.586Z,1020.16
2022-08-11T13:50:02.454Z,1020.32
2022-08-11T13:52:01.833Z,1020.32
2022-08-11T13:54:02.561Z,1020.16
2022-08-11T13:56:01.734Z,1020.16
2022-08-11T13:58:40.104Z,1020.14
2022-08-11T14:00:08.475Z,1020.14
2022-08-11T14:02:30.023Z,1020.11
2022-08-11T14:04:32.506Z,1020.11
2022-08-11T14:06:02.478Z,1020.09
2022-08-11T14:08:02.354Z,1020.09
2022-08-11T14:10:02.081Z,1020.08
2022-08-11T14:12:24.721Z,1020.08
2022-08-11T14:14:02.356Z,1020.09
2022-08-11T14:16:01.882Z,1020.09
2022-08-11T14:18:02.255Z,1019.99
2022-08-11T14:20:40.808Z,1019.99
2022-08-11T14:22:08.291Z,1019.92
2022-08-11T14:24:02.369Z,1019.92
2022-08-11T14:26:03.179Z,1019.83
2022-08-11T14:28:37.790Z,1019.83
2022-08-11T14:30:02.319Z,1019.81
2022-08-11T14:32:02.627Z,1019.81
2022-08-11T14:34:02.556Z,1019.74
2022-08-11T14:40:04.664Z,1019.69
2022-08-11T14:42:13.509Z,1019.68
2022-08-11T14:44:14.761Z,1019.68
2022-08-11T14:46:01.817Z,1019.7
2022-08-11T14:48:01.978Z,1019.7
2022-08-11T14:50:12.888Z,1019.74
2022-08-11T14:52:01.853Z,1019.74
2022-08-11T14:54:01.735Z,1019.69
2022-08-11T14:56:02.128Z,1019.69
2022-08-11T14:58:01.558Z,1019.58
2022-08-11T15:00:02.394Z,1019.58
2022-08-11T15:02:02.250Z,1019.61
2022-08-11T15:04:37.065Z,1019.61
2022-08-11T15:06:02.236Z,1019.49
2022-08-11T15:08:01.689Z,1019.49
2022-08-11T15:10:14.066Z,1019.47
2022-08-11T15:12:01.956Z,1019.47
2022-08-11T15:14:01.683Z,1019.46
2022-08-11T15:16:06.173Z,1019.46
2022-08-11T15:18:02.528Z,1019.41
2022-08-11T15:20:02.165Z,1019.41
2022-08-11T15:22:01.659Z,1019.41
2022-08-11T15:24:02.516Z,1019.41
2022-08-11T15:26:02.137Z,1019.38
2022-08-11T15:28:02.546Z,1019.38
2022-08-11T15:30:01.994Z,1019.42
2022-08-11T15:32:02.003Z,1019.42
2022-08-11T15:34:02.220Z,1019.29
2022-08-11T15:36:02.239Z,1019.29
2022-08-11T15:38:01.787Z,1019.36
2022-08-11T15:40:02.476Z,1019.36
2022-08-11T15:42:02.301Z,1019.34
2022-08-11T15:44:02.531Z,1019.34
2022-08-11T15:46:01.610Z,1019.27
2022-08-11T15:48:06.380Z,1019.27
2022-08-11T15:50:14.165Z,1019.24
2022-08-11T15:52:02.586Z,1019.24
2022-08-11T15:54:09.444Z,1019.24
2022-08-11T15:56:02.254Z,1019.24
2022-08-11T15:58:02.227Z,1019.2
2022-08-11T16:00:07.182Z,1019.2
2022-08-11T16:02:02.425Z,1019.17
2022-08-11T16:04:09.375Z,1019.17
2022-08-11T16:06:02.727Z,1019.03
2022-08-11T16:08:03.300Z,1019.03
2022-08-11T16:10:02.634Z,1019.24
2022-08-11T16:12:01.894Z,1019.24
2022-08-11T16:14:06.436Z,1019.19
2022-08-11T16:16:01.603Z,1019.19
2022-08-11T16:18:01.717Z,1019.16
2022-08-11T16:20:02.382Z,1019.16
2022-08-11T16:22:02.418Z,1019.05
2022-08-11T16:24:01.939Z,1019.05
2022-08-11T16:27:13.911Z,1019.03
2022-08-11T16:28:01.620Z,1019.03
2022-08-11T16:30:02.430Z,1019.05
2022-08-11T16:32:02.318Z,1019.05
2022-08-11T16:34:01.615Z,1018.95
2022-08-11T16:36:01.899Z,1018.95
2022-08-11T16:38:02.085Z,1019.01
2022-08-11T16:40:02.557Z,1018.96
2022-08-11T16:42:02.121Z,1018.96
2022-08-11T16:44:02.427Z,1019.03
2022-08-11T16:46:02.055Z,1019.03
2022-08-11T16:48:38.870Z,1018.94
2022-08-11T16:50:02.097Z,1018.94
2022-08-11T16:52:02.020Z,1018.81
2022-08-11T16:54:06.569Z,1018.81
2022-08-11T16:56:01.647Z,1018.85
2022-08-11T16:58:01.896Z,1018.85
2022-08-11T17:00:05.135Z,1018.93
2022-08-11T17:02:03.382Z,1018.93
2022-08-11T17:04:02.509Z,1018.91
2022-08-11T17:06:02.066Z,1018.91
2022-08-11T17:08:02.727Z,1018.9
2022-08-11T17:10:02.197Z,1018.9
2022-08-11T17:12:01.837Z,1018.82
2022-08-11T17:14:01.757Z,1018.82
2022-08-11T17:16:02.503Z,1018.84
2022-08-11T17:18:02.098Z,1018.84
2022-08-11T17:20:44.458Z,1018.82
2022-08-11T17:22:01.652Z,1018.82
2022-08-11T17:24:09.548Z,1018.75
2022-08-11T17:26:04.909Z,1018.75
2022-08-11T17:28:01.561Z,1018.85
2022-08-11T17:30:02.546Z,1018.85
2022-08-11T17:32:01.683Z,1018.73
2022-08-11T17:34:01.683Z,1018.73
2022-08-11T17:36:02.179Z,1018.68
2022-08-11T17:38:02.377Z,1018.68
2022-08-11T17:40:02.538Z,1018.72
2022-08-11T17:42:01.731Z,1018.72
2022-08-11T17:44:02.218Z,1018.85
2022-08-11T17:46:01.963Z,1018.85
2022-08-11T17:48:01.838Z,1018.78
2022-08-11T17:50:18.375Z,1018.78
2022-08-11T17:52:01.713Z,1018.75
2022-08-11T17:54:25.499Z,1018.75
2022-08-11T17:56:01.573Z,1018.77
2022-08-11T17:58:01.860Z,1018.77
2022-08-11T18:00:04.939Z,1018.84
2022-08-11T18:02:05.624Z,1018.84
2022-08-11T18:04:01.918Z,1018.83
2022-08-11T18:06:02.266Z,1018.83
2022-08-11T18:08:01.810Z,1018.91
2022-08-11T18:10:01.909Z,1018.91
2022-08-11T18:12:13.040Z,1018.93
2022-08-11T18:14:02.345Z,1018.93
2022-08-11T18:16:01.798Z,1018.95
2022-08-11T18:18:02.471Z,1018.95
2022-08-11T18:20:02.195Z,1018.93
2022-08-11T18:22:16.224Z,1018.93
2022-08-11T18:24:01.992Z,1018.89
2022-08-11T18:26:02.008Z,1018.89
2022-08-11T18:28:01.863Z,1018.9
2022-08-11T18:30:02.046Z,1018.9
2022-08-11T18:32:02.512Z,1018.88
2022-08-11T18:34:08.488Z,1018.88
2022-08-11T18:36:01.706Z,1019.03
2022-08-11T18:38:02.425Z,1019.03
2022-08-11T18:40:02.087Z,1018.9
2022-08-11T18:42:01.536Z,1018.9
2022-08-11T18:44:01.952Z,1018.97
2022-08-11T18:46:08.026Z,1018.97
2022-08-11T18:48:02.240Z,1018.97
2022-08-11T18:50:05.883Z,1018.97
2022-08-11T18:52:02.561Z,1018.95
2022-08-11T18:54:02.101Z,1018.95
2022-08-11T18:56:02.113Z,1019.08
2022-08-11T18:58:02.246Z,1019.08
2022-08-11T19:00:05.092Z,1019.03
2022-08-11T19:02:02.118Z,1019.03
2022-08-11T19:04:11.951Z,1019.14
2022-08-11T19:06:41.000Z,1019.14
2022-08-11T19:08:01.991Z,1019.18
2022-08-11T19:10:02.548Z,1019.18
2022-08-11T19:12:02.348Z,1019.05
2022-08-11T19:14:01.968Z,1019.05
2022-08-11T19:16:05.862Z,1019.08
2022-08-11T19:18:02.261Z,1019.08
2022-08-11T19:20:02.427Z,1019.14
2022-08-11T19:22:02.503Z,1019.14
2022-08-11T19:24:01.647Z,1019.1
2022-08-11T19:26:01.745Z,1019.1
2022-08-11T19:28:02.488Z,1019.14
2022-08-11T19:30:14.526Z,1019.14
2022-08-11T19:32:01.788Z,1019.22
2022-08-11T19:34:11.049Z,1019.22
2022-08-11T19:36:02.368Z,1019.32
2022-08-11T19:38:01.999Z,1019.32
2022-08-11T19:40:01.782Z,1019.33
2022-08-11T19:42:02.120Z,1019.33
2022-08-11T19:44:02.080Z,1019.4
2022-08-11T19:46:02.158Z,1019.4
2022-08-11T19:48:32.587Z,1019.39
2022-08-11T19:50:02.571Z,1019.39
2022-08-11T19:52:02.053Z,1019.43
2022-08-11T19:54:02.597Z,1019.43
2022-08-11T19:56:02.291Z,1019.43
2022-08-11T19:58:01.959Z,1019.43
2022-08-11T20:00:05.077Z,1019.38
2022-08-11T20:02:15.150Z,1019.38
2022-08-11T20:04:02.081Z,1019.37
2022-08-11T20:06:02.459Z,1019.39
2022-08-11T20:08:02.170Z,1019.39
2022-08-11T20:10:06.880Z,1019.3
2022-08-11T20:12:01.759Z,1019.3
2022-08-11T20:14:02.388Z,1019.44
2022-08-11T20:16:02.555Z,1019.44
2022-08-11T20:18:02.114Z,1019.29
2022-08-11T20:20:02.596Z,1019.29
2022-08-11T20:22:09.738Z,1019.35
2022-08-11T20:24:01.689Z,1019.35
2022-08-11T20:26:31.755Z,1019.35
2022-08-11T20:28:02.420Z,1019.35
2022-08-11T20:30:01.891Z,1019.37
2022-08-11T20:32:09.633Z,1019.37
2022-08-11T20:34:01.895Z,1019.48
2022-08-11T20:36:01.774Z,1019.48
2022-08-11T20:38:01.758Z,1019.46
2022-08-11T20:40:02.535Z,1019.46
2022-08-11T20:42:01.931Z,1019.46
2022-08-11T20:44:09.780Z,1019.46
2022-08-11T20:46:02.124Z,1019.39
2022-08-11T20:48:02.832Z,1019.39
2022-08-11T20:50:03.404Z,1019.47
2022-08-11T20:52:06.784Z,1019.47
2022-08-11T20:54:06.118Z,1019.45
2022-08-11T20:56:07.095Z,1019.45
2022-08-11T21:00:09.248Z,1019.52
2022-08-11T21:02:03.570Z,1019.35
2022-08-11T21:04:01.905Z,1019.35
2022-08-11T21:06:11.181Z,1019.48
2022-08-11T21:08:02.537Z,1019.48
2022-08-11T21:10:10.891Z,1019.47
2022-08-11T21:12:02.892Z,1019.47
2022-08-11T21:12:34.827Z,1019.52
2022-08-11T21:14:03.283Z,1019.44
2022-08-11T21:16:03.693Z,1019.44
2022-08-11T21:18:07.398Z,1019.48
2022-08-11T21:20:17.025Z,1019.48
2022-08-11T21:22:03.940Z,1019.5
2022-08-11T21:24:02.511Z,1019.5
2022-08-11T21:26:02.610Z,1019.33
2022-08-11T21:28:01.830Z,1019.33
2022-08-11T21:30:02.294Z,1019.33
2022-08-11T21:32:01.878Z,1019.33
2022-08-11T21:34:02.512Z,1019.35
2022-08-11T21:36:01.679Z,1019.35
2022-08-11T21:38:07.342Z,1019.37
2022-08-11T21:40:02.479Z,1019.37
2022-08-11T21:42:02.258Z,1019.38
2022-08-11T21:44:02.493Z,1019.38
2022-08-11T21:46:02.511Z,1019.38
2022-08-11T21:48:02.381Z,1019.38
2022-08-11T21:50:02.488Z,1019.35
2022-08-11T21:52:02.574Z,1019.35
2022-08-11T21:54:02.209Z,1019.32
2022-08-11T21:56:02.511Z,1019.32
2022-08-11T21:58:01.964Z,1019.45
2022-08-11T22:00:11.467Z,1019.45
2022-08-11T22:02:02.661Z,1019.37
2022-08-11T22:04:01.685Z,1019.37
2022-08-11T22:06:02.010Z,1019.32
2022-08-11T22:08:02.493Z,1019.32
2022-08-11T22:10:43.218Z,1019.38
2022-08-11T22:12:35.457Z,1019.38
2022-08-11T22:14:08.466Z,1019.51
2022-08-11T22:16:02.414Z,1019.51
2022-08-11T22:18:02.142Z,1019.38
2022-08-11T22:20:02.162Z,1019.38
2022-08-11T22:22:07.090Z,1019.43
2022-08-11T22:24:02.196Z,1019.43
2022-08-11T22:26:11.965Z,1019.34
2022-08-11T22:28:02.495Z,1019.34
2022-08-11T22:30:02.285Z,1019.42
2022-08-11T22:32:01.603Z,1019.42
2022-08-11T22:34:03.699Z,1019.43
2022-08-11T22:36:02.582Z,1019.43
2022-08-11T22:38:01.878Z,1019.55
2022-08-11T22:40:03.712Z,1019.55
2022-08-11T22:42:01.665Z,1019.39
2022-08-11T22:44:02.063Z,1019.39
2022-08-11T22:46:02.361Z,1019.42
2022-08-11T22:48:02.421Z,1019.42
2022-08-11T22:50:01.925Z,1019.33
2022-08-11T22:52:02.153Z,1019.33
2022-08-11T22:54:02.019Z,1019.45
2022-08-11T22:56:02.508Z,1019.45
2022-08-11T22:58:02.082Z,1019.4
2022-08-11T23:00:05.322Z,1019.4
2022-08-11T23:02:02.567Z,1019.45
2022-08-11T23:04:02.509Z,1019.45
2022-08-11T23:06:05.182Z,1019.51
2022-08-11T23:08:02.171Z,1019.51
2022-08-11T23:10:02.480Z,1019.46
2022-08-11T23:12:10.178Z,1019.46
2022-08-11T23:14:01.588Z,1019.36
2022-08-11T23:16:01.764Z,1019.36
2022-08-11T23:18:02.318Z,1019.46
2022-08-11T23:20:42.180Z,1019.46
2022-08-11T23:22:02.609Z,1019.43
2022-08-11T23:24:02.002Z,1019.43
2022-08-11T23:26:02.289Z,1019.39
2022-08-11T23:28:01.758Z,1019.39
2022-08-11T23:30:01.783Z,1019.44
2022-08-11T23:32:01.884Z,1019.47
2022-08-11T23:34:02.493Z,1019.47
2022-08-11T23:36:05.872Z,1019.46
2022-08-11T23:38:01.921Z,1019.46
2022-08-11T23:40:02.384Z,1019.36
2022-08-11T23:42:02.430Z,1019.36
2022-08-11T23:44:01.936Z,1019.41
2022-08-11T23:46:01.735Z,1019.41
2022-08-11T23:48:02.071Z,1019.37
2022-08-11T23:50:01.765Z,1019.37
2022-08-11T23:52:01.838Z,1019.4
2022-08-11T23:54:08.261Z,1019.4
2022-08-11T23:56:02.442Z,1019.34
2022-08-11T23:58:01.972Z,1019.34
